Time;durP1;ratioP1;P1;durP2;ratioP2;P2;SDS_P1;SDS_P2;PMS_P1;PMS_P2;Temp;Humidity;BMP_temperature;BMP_pressure;BME280_temperature;BME280_humidity;BME280_pressure;Samples;Min_cycle;Max_cycle;Signal;HPM_P1;HPM_P2
2022/01/05 08:22:59;;;;;;;164.50;141.73;;;;;;;16.76;37.54;92501.53;5050729;28;20079;-67
2022/01/05 08:25:25;;;;;;;154.15;136.15;;;;;;;16.74;37.54;92501.25;5065796;28;20084;-67
2022/01/05 08:27:50;;;;;;;154.63;137.60;;;;;;;16.73;37.49;92503.22;5067133;28;20495;-64
2022/01/05 08:30:18;;;;;;;160.13;142.45;;;;;;;16.70;37.47;92514.25;5060708;28;20084;-67
2022/01/05 08:32:46;;;;;;;156.77;139.50;;;;;;;16.68;37.60;92503.94;5063855;28;20056;-66
2022/01/05 08:35:14;;;;;;;158.82;141.27;;;;;;;16.71;37.32;92510.31;5065378;28;20047;-67
2022/01/05 08:37:44;;;;;;;158.70;141.27;;;;;;;16.71;37.56;92516.47;5068920;28;20052;-69
2022/01/05 08:40:19;;;;;;;157.50;140.25;;;;;;;16.70;37.36;92519.63;5069016;28;20443;-67
2022/01/05 08:42:44;;;;;;;158.70;141.15;;;;;;;16.70;37.40;92522.34;5067436;28;20453;-67
2022/01/05 08:45:11;;;;;;;157.77;140.07;;;;;;;16.69;37.34;92523.56;5066799;28;20045;-68
2022/01/05 08:47:37;;;;;;;156.13;138.93;;;;;;;16.70;37.44;92531.19;5062527;28;20059;-68
2022/01/05 08:50:03;;;;;;;157.20;139.90;;;;;;;16.71;37.43;92531.91;5067786;28;20048;-67
2022/01/05 08:52:29;;;;;;;158.57;141.20;;;;;;;16.72;37.46;92552.28;5067571;28;20052;-67
2022/01/05 08:54:55;;;;;;;154.50;137.52;;;;;;;16.72;37.45;92550.34;5069591;28;20424;-67
2022/01/05 08:57:21;;;;;;;159.25;141.77;;;;;;;16.71;37.36;92554.25;5067353;28;20139;-67
2022/01/05 08:59:47;;;;;;;158.70;141.27;;;;;;;16.71;37.46;92562.34;5049244;28;20257;-67
2022/01/05 09:02:15;;;;;;;160.35;142.65;;;;;;;16.70;37.41;92566.28;5065614;28;20072;-67
2022/01/05 09:04:41;;;;;;;156.40;139.20;;;;;;;16.67;37.39;92575.31;5065639;28;20056;-66
2022/01/05 09:07:07;;;;;;;158.98;141.38;;;;;;;16.69;37.50;92577.53;5068064;28;20041;-67
2022/01/05 09:09:33;;;;;;;159.38;141.77;;;;;;;16.67;37.26;92588.09;5060888;28;20043;-67
2022/01/05 09:11:58;;;;;;;155.55;138.52;;;;;;;16.68;37.43;92590.31;5044716;28;20037;-67
2022/01/05 09:14:23;;;;;;;156.43;139.25;;;;;;;16.67;37.36;92579.97;5081548;28;20111;-67
2022/01/05 09:16:49;;;;;;;156.43;139.32;;;;;;;16.65;37.28;92585.88;5039663;28;20496;-66
2022/01/05 09:19:14;;;;;;;155.95;138.75;;;;;;;16.67;37.51;92591.53;5067135;28;20044;-66
2022/01/05 09:21:40;;;;;;;156.77;139.63;;;;;;;16.67;37.37;92594.22;5069507;28;20044;-67
2022/01/05 09:24:06;;;;;;;155.68;138.57;;;;;;;16.67;37.37;92604.28;5050060;28;20040;-66
2022/01/05 09:26:31;;;;;;;161.85;144.07;;;;;;;16.68;37.76;92611.16;5058053;28;20056;-67
2022/01/05 09:28:57;;;;;;;166.82;148.43;;;;;;;16.69;37.33;92618.03;5064607;28;20048;-67
2022/01/05 09:31:22;;;;;;;161.50;142.45;;;;;;;16.68;37.35;92616.56;5066678;28;20056;-66
2022/01/05 09:33:48;;;;;;;194.57;168.02;;;;;;;16.67;37.43;92613.13;5057094;28;20295;-66
2022/01/05 09:36:18;;;;;;;160.13;142.43;;;;;;;16.66;37.59;92616.28;5051431;28;20666;-65
2022/01/05 09:44:20;;;;;;;173.40;151.52;;;;;;;16.68;37.16;92630.78;4981401;28;20139;-84
2022/01/05 09:46:58;;;;;;;170.60;151.75;;;;;;;16.68;37.16;92633.50;4952501;28;20054;-85
2022/01/05 09:49:34;;;;;;;180.52;159.52;;;;;;;16.68;37.34;92640.84;4970359;28;20053;-86
2022/01/05 09:52:08;;;;;;;173.45;154.15;;;;;;;16.69;37.49;92643.06;4970069;28;21077;-84
2022/01/05 09:54:36;;;;;;;168.38;149.75;;;;;;;16.70;37.20;92647.25;4970284;28;20052;-85
2022/01/05 09:57:04;;;;;;;172.02;153.02;;;;;;;16.70;37.28;92647.25;4972659;28;20052;-85
2022/01/05 09:59:32;;;;;;;171.95;151.88;;;;;;;16.70;37.35;92644.56;4990209;28;20046;-81
2022/01/05 10:01:58;;;;;;;173.97;154.13;;;;;;;16.69;37.28;92639.63;4985211;28;20050;-85
2022/01/05 10:04:24;;;;;;;173.45;154.18;;;;;;;16.70;37.25;92635.72;4953062;28;20115;-85
2022/01/05 10:06:53;;;;;;;173.88;154.68;;;;;;;16.67;37.25;92637.41;4988641;28;20415;-79
2022/01/05 10:09:19;;;;;;;175.07;155.85;;;;;;;16.68;37.22;92648.94;4987597;28;20496;-84
2022/01/05 10:11:45;;;;;;;175.68;156.30;;;;;;;16.63;37.23;92671.94;4990631;28;20052;-82
2022/01/05 10:14:13;;;;;;;171.68;152.85;;;;;;;16.45;37.34;92675.69;4971481;28;20045;-85
2022/01/05 10:16:41;;;;;;;170.85;152.10;;;;;;;16.37;37.10;92687.38;4989972;28;20163;-82
2022/01/05 10:19:08;;;;;;;186.80;166.07;;;;;;;16.34;37.18;92697.16;4966942;28;20514;-82
2022/01/05 10:21:39;;;;;;;171.20;152.25;;;;;;;16.29;36.89;92703.22;4967881;28;20118;-83
2022/01/05 10:24:05;;;;;;;176.57;156.02;;;;;;;16.25;36.80;92701.97;4990311;28;20475;-83
2022/01/05 10:26:32;;;;;;;177.68;157.43;;;;;;;16.25;36.89;92713.50;4987192;28;20042;-82
2022/01/05 10:29:02;;;;;;;179.90;159.95;;;;;;;16.35;36.57;92714.09;4987823;28;20046;-83
2022/01/05 10:31:39;;;;;;;177.48;156.63;;;;;;;16.41;36.32;92715.63;4986243;28;20057;-83
2022/01/05 10:34:16;;;;;;;177.85;157.43;;;;;;;16.39;36.45;92718.06;4987169;28;20165;-81
2022/01/05 10:36:44;;;;;;;187.70;164.63;;;;;;;16.43;36.38;92723.25;4983908;28;20466;-81
2022/01/05 10:39:10;;;;;;;186.65;160.98;;;;;;;16.34;36.50;92732.22;4988630;28;20454;-82
2022/01/05 10:41:38;;;;;;;176.38;151.75;;;;;;;16.35;36.46;92739.13;4983790;28;20045;-81
2022/01/05 10:44:20;;;;;;;165.25;142.90;;;;;;;16.35;36.33;92738.38;4972639;28;20046;-83
2022/01/05 10:46:56;;;;;;;183.85;156.27;;;;;;;16.41;36.29;92747.28;4966409;28;21036;-82
2022/01/05 10:49:30;;;;;;;178.73;155.93;;;;;;;16.42;36.21;92748.75;4987371;28;20073;-83
2022/01/05 10:51:59;;;;;;;177.18;155.50;;;;;;;16.40;36.48;92751.94;4971006;28;20053;-83
2022/01/05 10:54:28;;;;;;;173.88;152.63;;;;;;;16.42;36.36;92754.91;4969585;28;20050;-83
2022/01/05 10:57:05;;;;;;;177.82;156.15;;;;;;;16.39;36.39;92760.50;4996079;28;20547;-83
2022/01/05 10:59:55;;;;;;;177.95;156.50;;;;;;;16.35;36.46;92749.91;4976564;28;20046;-85
2022/01/05 11:02:23;;;;;;;169.60;147.43;;;;;;;16.35;36.40;92759.94;4993474;28;20046;-82
2022/01/05 11:04:50;;;;;;;173.27;150.25;;;;;;;16.36;36.29;92761.44;4978414;28;20428;-85
2022/01/05 11:07:21;;;;;;;180.63;158.43;;;;;;;16.34;36.42;92763.88;4970872;28;20132;-83
2022/01/05 11:09:55;;;;;;;175.48;153.52;;;;;;;16.37;36.29;92760.22;4990832;28;20045;-84
2022/01/05 11:12:30;;;;;;;177.15;154.10;;;;;;;16.35;36.14;92765.34;4980031;28;20045;-84
2022/01/05 11:15:24;;;;;;;172.73;151.40;;;;;;;16.34;36.18;92767.31;4974743;28;20046;-81
2022/01/05 11:18:14;;;;;;;172.73;149.68;;;;;;;16.28;36.29;92769.19;4996043;28;20038;-83
2022/01/05 11:20:55;;;;;;;168.57;147.38;;;;;;;16.21;35.92;92768.88;4973548;28;20034;-82
2022/01/05 11:23:26;;;;;;;175.88;154.25;;;;;;;16.25;36.20;92775.53;4993902;28;20046;-84
2022/01/05 11:25:55;;;;;;;174.88;153.55;;;;;;;16.35;36.27;92784.25;4976171;28;20076;-86
2022/01/05 11:28:23;;;;;;;173.95;152.90;;;;;;;16.41;36.14;92783.09;4995802;28;20092;-83
2022/01/05 11:32:03;;;;;;;178.07;153.90;;;;;;;16.39;36.25;92785.53;5065696;27;20417;-64
2022/01/05 11:34:30;;;;;;;180.50;157.93;;;;;;;16.39;36.43;92790.16;5042546;28;20429;-65
2022/01/05 11:36:57;;;;;;;178.23;156.48;;;;;;;16.37;36.39;92787.19;5044678;28;20036;-65
2022/01/05 11:39:24;;;;;;;183.43;160.75;;;;;;;16.38;36.31;92797.53;5042784;28;20417;-65
2022/01/05 11:41:53;;;;;;;184.32;162.23;;;;;;;16.39;36.08;92796.31;5040504;28;20797;-65
2022/01/05 11:44:19;;;;;;;192.48;169.20;;;;;;;16.44;36.21;92800.28;5040788;28;20045;-64
2022/01/05 11:46:46;;;;;;;177.48;155.75;;;;;;;16.45;36.21;92802.53;5040859;28;20930;-65
2022/01/05 11:49:15;;;;;;;174.80;153.13;;;;;;;16.48;36.14;92790.03;5039863;28;20052;-65
2022/01/05 11:51:40;;;;;;;180.88;160.43;;;;;;;16.45;36.15;92786.31;5034895;28;20052;-64
2022/01/05 11:54:17;;;;;;;182.02;160.70;;;;;;;16.44;36.31;92795.63;5039746;28;20056;-65
2022/01/05 11:57:07;;;;;;;193.80;171.90;;;;;;;16.45;36.30;92790.97;5039005;28;20044;-64
2022/01/05 11:59:42;;;;;;;172.65;153.23;;;;;;;16.42;36.23;92786.53;4988138;28;21470;-64
2022/01/05 12:02:12;;;;;;;186.95;164.45;;;;;;;16.43;36.17;92796.84;5034323;28;20045;-64
2022/01/05 12:04:55;;;;;;;182.75;162.00;;;;;;;16.44;36.43;92803.00;5032905;28;20052;-63
2022/01/05 12:07:43;;;;;;;203.25;177.05;;;;;;;16.45;36.13;92794.44;5033776;28;20044;-65
2022/01/05 12:10:13;;;;;;;182.40;159.07;;;;;;;16.42;36.14;92798.06;5028154;28;20055;-65
2022/01/05 12:15:55;;;;;;;320.23;285.20;;;;;;;16.39;36.17;92799.00;5258230;22;20496;-87
2022/01/05 12:18:26;;;;;;;181.75;159.90;;;;;;;16.34;36.25;92798.94;4988592;28;20056;-84
2022/01/05 12:20:53;;;;;;;177.50;157.75;;;;;;;16.39;36.22;92807.09;5025659;28;20493;-84
2022/01/05 12:23:27;;;;;;;169.77;150.75;;;;;;;16.38;36.10;92811.00;5033021;28;20072;-83
2022/01/05 12:28:32;;;;;;;216.85;184.63;;;;;;;15.48;36.56;92800.94;5041185;22;20405;-90
2022/01/05 12:30:58;;;;;;;193.00;165.80;;;;;;;15.89;36.07;92825.31;5019620;28;20133;-86
2022/01/05 12:33:50;;;;;;;177.27;152.32;;;;;;;15.99;35.66;92818.59;4989865;28;20056;-87
2022/01/05 12:46:10;;;;;;;185.20;159.70;;;;;;;16.27;35.50;92845.94;5004372;22;20057;-66
2022/01/05 12:48:36;;;;;;;189.50;164.65;;;;;;;16.30;35.60;92847.69;4990789;28;20042;-67
2022/01/05 12:51:11;;;;;;;171.23;148.13;;;;;;;16.32;35.53;92839.88;4978447;28;20058;-66
2022/01/05 12:53:49;;;;;;;182.38;157.20;;;;;;;16.32;35.54;92847.22;4981720;28;20140;-65
2022/01/05 12:56:24;;;;;;;184.07;160.80;;;;;;;16.33;35.53;92848.72;4981365;28;20050;-64
2022/01/05 12:58:51;;;;;;;189.55;164.18;;;;;;;16.35;35.72;92852.44;4978573;28;20065;-63
2022/01/05 13:01:19;;;;;;;191.55;167.43;;;;;;;16.38;35.54;92864.97;4979335;28;20043;-64
2022/01/05 13:03:44;;;;;;;189.63;164.77;;;;;;;16.34;35.60;92867.13;4977930;28;20030;-63
2022/01/05 13:06:20;;;;;;;183.52;161.00;;;;;;;16.38;35.67;92873.06;4996523;28;20107;-63
2022/01/05 13:08:47;;;;;;;191.05;167.18;;;;;;;16.40;35.77;92884.13;4980754;28;20050;-63
2022/01/05 13:11:34;;;;;;;180.43;159.15;;;;;;;16.42;35.57;92883.66;4977509;28;20122;-65
2022/01/05 13:14:14;;;;;;;183.75;159.15;;;;;;;16.43;35.61;92890.56;4971672;28;20390;-64
2022/01/05 13:16:42;;;;;;;187.65;164.50;;;;;;;16.44;35.54;92886.66;4980969;28;20053;-64
2022/01/05 13:19:15;;;;;;;181.93;158.57;;;;;;;16.47;35.79;92885.69;4978400;28;20046;-65
2022/01/05 13:21:46;;;;;;;173.77;153.77;;;;;;;16.47;35.78;92891.84;4977922;28;21167;-64
2022/01/05 13:24:12;;;;;;;186.68;162.25;;;;;;;16.47;35.69;92885.69;4977703;28;20133;-65
2022/01/05 13:27:04;;;;;;;188.02;166.15;;;;;;;16.48;35.88;92889.88;4980550;28;20046;-64
2022/01/05 13:29:31;;;;;;;183.63;160.68;;;;;;;16.50;35.76;92894.81;4978472;28;20050;-64
2022/01/05 13:32:02;;;;;;;178.68;158.18;;;;;;;16.50;35.72;92889.41;4980694;28;20066;-65
2022/01/05 13:34:36;;;;;;;186.82;162.70;;;;;;;16.49;35.67;92896.78;4980130;28;20053;-65
2022/01/05 13:37:05;;;;;;;179.52;159.38;;;;;;;16.48;35.72;92904.13;4977422;28;20042;-64
2022/01/05 13:39:35;;;;;;;;;;;;;;;16.49;36.07;92899.47;4972095;28;20043;-63
2022/01/05 13:42:01;;;;;;;175.07;150.65;;;;;;;16.50;35.75;92911.75;4968264;28;21455;-64
2022/01/05 13:44:26;;;;;;;187.38;163.73;;;;;;;16.50;35.84;92909.06;4965443;28;20050;-64
2022/01/05 13:46:52;;;;;;;186.30;163.27;;;;;;;16.50;35.83;92916.41;4963408;28;20056;-65
2022/01/05 13:49:18;;;;;;;191.82;168.38;;;;;;;16.51;35.93;92915.19;4962667;28;20061;-64
2022/01/05 13:52:01;;;;;;;179.00;157.88;;;;;;;16.51;35.96;92918.63;4968444;28;22041;-65
2022/01/05 13:54:26;;;;;;;186.02;163.38;;;;;;;16.48;35.76;92924.97;4966157;28;20066;-64
2022/01/05 13:56:52;;;;;;;183.73;160.75;;;;;;;16.42;35.76;92922.19;4969441;28;20059;-64
2022/01/05 13:59:17;;;;;;;189.52;166.05;;;;;;;16.41;35.97;92920.69;4966425;28;20046;-65
2022/01/05 14:01:55;;;;;;;186.93;164.38;;;;;;;16.41;35.64;92922.66;4969411;28;20039;-64
2022/01/05 14:04:21;;;;;;;183.85;160.65;;;;;;;16.36;35.60;92918.66;4965972;28;20062;-65
2022/01/05 14:07:00;;;;;;;187.27;164.68;;;;;;;16.33;35.74;92924.25;4967819;28;20057;-65
2022/01/05 14:09:30;;;;;;;188.30;164.55;;;;;;;16.35;35.81;92927.22;4970875;28;20054;-63
2022/01/05 14:11:57;;;;;;;170.85;149.25;;;;;;;16.37;35.57;92925.56;4966542;28;20050;-65
2022/01/05 14:14:24;;;;;;;181.95;158.98;;;;;;;16.40;35.70;92930.00;4967542;28;20050;-64
2022/01/05 14:16:51;;;;;;;187.00;163.30;;;;;;;16.33;35.32;92937.75;4966280;28;20668;-64
2022/01/05 14:19:25;;;;;;;198.48;173.43;;;;;;;16.29;35.32;92945.28;4966060;28;20475;-65
2022/01/05 14:22:00;;;;;;;181.90;159.30;;;;;;;16.35;35.66;92956.91;4964502;28;21140;-64
2022/01/05 14:24:33;;;;;;;183.95;161.88;;;;;;;16.40;35.65;92956.25;4964680;28;20637;-64
2022/01/05 14:27:00;;;;;;;181.80;158.23;;;;;;;16.44;35.62;92960.25;4965177;28;20056;-64
2022/01/05 14:29:26;;;;;;;185.45;159.95;;;;;;;16.45;35.62;92969.09;4963974;28;20053;-65
2022/01/05 14:32:00;;;;;;;186.13;162.95;;;;;;;16.45;35.81;92963.69;4965880;28;20089;-64
2022/01/05 14:34:26;;;;;;;189.70;166.40;;;;;;;16.42;35.71;92972.72;4965773;28;20145;-63
2022/01/05 14:37:02;;;;;;;186.15;163.27;;;;;;;16.41;35.83;92971.22;4961433;28;20085;-63
2022/01/05 14:39:42;;;;;;;184.40;157.48;;;;;;;16.40;35.54;92980.53;4963896;28;20057;-65
2022/01/05 14:42:13;;;;;;;185.25;161.25;;;;;;;16.37;35.25;92982.22;4964913;28;20538;-64
2022/01/05 14:44:40;;;;;;;204.15;178.27;;;;;;;16.39;35.57;92984.44;4963716;28;20054;-64
2022/01/05 14:47:08;;;;;;;181.20;157.23;;;;;;;16.38;35.50;92986.41;4964286;28;20050;-65
2022/01/05 14:49:37;;;;;;;187.63;163.70;;;;;;;16.42;35.33;92995.06;4964018;28;20042;-65
2022/01/05 14:52:05;;;;;;;178.52;155.57;;;;;;;16.42;35.54;92995.06;4966829;28;20108;-64
2022/01/05 14:54:36;;;;;;;192.02;166.35;;;;;;;16.43;35.39;92991.13;4963989;28;20239;-64
2022/01/05 14:57:04;;;;;;;186.15;161.32;;;;;;;16.43;35.58;92987.69;4965402;28;20057;-64
2022/01/05 14:59:30;;;;;;;166.37;146.10;;;;;;;16.44;35.75;93003.41;4965211;28;20081;-66
2022/01/05 15:01:55;;;;;;;169.63;149.13;;;;;;;16.44;35.63;92994.59;4976435;28;20396;-65
2022/01/05 15:04:21;;;;;;;258.35;228.05;;;;;;;16.43;35.62;93007.34;4951898;28;22110;-66
2022/01/05 15:06:47;;;;;;;187.85;163.77;;;;;;;16.44;35.85;93008.81;4951915;28;20109;-67
2022/01/05 15:09:12;;;;;;;187.55;163.80;;;;;;;16.44;35.61;93008.81;4966068;28;20058;-68
2022/01/05 15:11:39;;;;;;;184.13;161.55;;;;;;;16.43;35.71;93015.44;4964338;28;20060;-66
2022/01/05 15:14:06;;;;;;;182.27;157.98;;;;;;;16.43;35.83;93012.72;4965168;28;20494;-66
2022/01/05 15:16:31;;;;;;;184.75;162.05;;;;;;;16.44;35.74;93002.69;4960820;28;20052;-67
2022/01/05 15:18:57;;;;;;;179.27;156.07;;;;;;;16.45;35.93;92993.38;4961639;28;20043;-66
2022/01/05 15:21:23;;;;;;;178.38;155.52;;;;;;;16.45;35.88;92998.75;4963099;28;21359;-67
2022/01/05 15:23:49;;;;;;;180.07;157.55;;;;;;;16.44;35.72;93005.38;4975054;28;20051;-66
2022/01/05 15:26:16;;;;;;;178.73;155.68;;;;;;;16.41;35.81;93001.66;4964326;28;20054;-67
2022/01/05 15:28:43;;;;;;;179.45;155.50;;;;;;;16.38;35.65;93010.69;4963193;28;20095;-66
2022/01/05 15:31:09;;;;;;;184.75;162.13;;;;;;;16.40;35.53;93021.00;4963034;28;20109;-66
2022/01/05 15:33:35;;;;;;;182.00;159.20;;;;;;;16.42;35.61;93024.72;4963463;28;20046;-67
2022/01/05 15:36:01;;;;;;;184.40;158.32;;;;;;;16.41;35.55;93012.44;4962831;28;20134;-66
2022/01/05 15:38:27;;;;;;;180.20;158.23;;;;;;;16.43;35.57;93028.19;4964004;28;20641;-67
2022/01/05 15:40:52;;;;;;;186.23;161.63;;;;;;;16.41;35.44;93028.63;4964321;28;20078;-67
2022/01/05 15:43:19;;;;;;;191.93;168.02;;;;;;;16.42;35.49;93042.88;4958414;28;20112;-66
2022/01/05 15:45:44;;;;;;;178.13;156.88;;;;;;;16.36;35.09;93048.19;4962416;28;20675;-66
2022/01/05 15:48:10;;;;;;;189.18;164.13;;;;;;;16.34;34.95;93056.00;4975570;28;20062;-66
2022/01/05 15:50:38;;;;;;;183.15;159.65;;;;;;;16.35;35.28;93059.44;4965269;28;20055;-67
2022/01/05 15:53:04;;;;;;;181.00;156.43;;;;;;;16.35;35.22;93062.88;4964425;28;20054;-67
2022/01/05 15:55:40;;;;;;;182.95;158.40;;;;;;;16.38;35.20;93072.00;4963597;28;20061;-67
2022/01/05 16:03:41;;;;;;;187.65;162.32;;;;;;;16.39;35.17;93055.34;4966212;28;20076;-67
2022/01/05 16:06:07;;;;;;;181.40;158.73;;;;;;;16.40;35.19;93064.94;4964159;28;20054;-67
2022/01/05 16:08:32;;;;;;;184.57;159.60;;;;;;;16.41;35.06;93057.56;4964299;28;20054;-67
2022/01/05 16:10:58;;;;;;;184.32;161.35;;;;;;;16.40;35.20;93062.22;4962036;28;20201;-66
2022/01/05 16:13:23;;;;;;;189.55;164.52;;;;;;;16.39;35.13;93049.94;4961786;28;20510;-66
2022/01/05 16:15:49;;;;;;;185.00;160.18;;;;;;;16.36;34.79;93069.03;4963493;28;20155;-66
2022/01/05 16:18:16;;;;;;;189.02;165.98;;;;;;;16.36;35.19;93074.41;4960658;28;20046;-67
2022/01/05 16:20:42;;;;;;;187.45;163.32;;;;;;;16.36;34.98;93075.16;4962352;28;20058;-66
2022/01/05 16:23:08;;;;;;;186.85;163.32;;;;;;;16.33;34.88;93078.78;4963516;28;20065;-67
2022/01/05 16:25:37;;;;;;;183.20;160.30;;;;;;;16.33;34.83;93094.22;4961067;28;20053;-67
2022/01/05 16:28:03;;;;;;;182.27;160.07;;;;;;;16.34;35.08;93093.03;4962981;28;20112;-67
2022/01/05 16:30:29;;;;;;;189.30;165.30;;;;;;;16.33;34.70;93092.28;4960686;28;20050;-67
2022/01/05 16:32:55;;;;;;;180.10;156.15;;;;;;;16.32;34.88;93090.78;4964319;28;20046;-67
2022/01/05 16:35:20;;;;;;;190.60;164.90;;;;;;;16.32;35.10;93076.56;4961652;28;20093;-67
2022/01/05 16:37:46;;;;;;;187.00;162.68;;;;;;;16.34;34.96;93077.59;4962251;28;20097;-67
2022/01/05 16:40:12;;;;;;;185.52;161.77;;;;;;;16.35;34.80;93072.94;4965516;28;20577;-67
2022/01/05 16:42:38;;;;;;;189.68;166.02;;;;;;;16.36;34.74;93080.56;4967123;28;20185;-67
2022/01/05 16:45:05;;;;;;;185.90;162.45;;;;;;;16.33;34.76;93076.09;4962310;28;20081;-67
2022/01/05 16:47:31;;;;;;;178.85;155.13;;;;;;;16.34;34.84;93080.28;4966493;28;20089;-67
2022/01/05 16:49:58;;;;;;;187.65;163.70;;;;;;;16.34;34.81;93082.97;4964441;28;20133;-66
2022/01/05 16:52:24;;;;;;;182.82;159.32;;;;;;;16.36;34.87;93090.59;4964942;28;20522;-66
2022/01/05 16:54:57;;;;;;;189.65;165.52;;;;;;;16.38;34.81;93093.59;4960623;28;20039;-66
2022/01/05 17:02:33;;;;;;;185.50;160.85;;;;;;;16.39;34.78;93112.00;4963724;28;20499;-67
2022/01/05 17:04:59;;;;;;;177.15;154.43;;;;;;;16.39;34.96;93117.41;4958147;28;20057;-67
2022/01/05 17:07:24;;;;;;;178.70;155.20;;;;;;;16.39;34.96;93111.25;4962196;28;20125;-67
2022/01/05 17:09:50;;;;;;;186.20;162.57;;;;;;;16.39;34.80;93117.41;4963861;28;20046;-67
2022/01/05 17:12:17;;;;;;;185.43;161.23;;;;;;;16.40;34.79;93121.59;4962442;28;20050;-67
2022/01/05 17:14:44;;;;;;;197.32;171.07;;;;;;;16.41;34.84;93133.13;4963412;28;20055;-67
2022/01/05 17:17:11;;;;;;;185.20;162.70;;;;;;;16.39;34.85;93127.47;4967716;28;20065;-67
2022/01/05 17:19:38;;;;;;;188.13;164.13;;;;;;;16.38;34.91;93142.91;4967026;28;20066;-67
2022/01/05 17:22:04;;;;;;;185.27;160.80;;;;;;;16.35;34.86;93140.38;4975656;28;20097;-66
2022/01/05 17:24:30;;;;;;;184.48;160.40;;;;;;;16.36;34.79;93145.31;4969398;28;20094;-67
2022/01/05 17:26:56;;;;;;;173.35;150.35;;;;;;;16.35;34.81;93156.56;4969866;28;20375;-67
2022/01/05 17:29:22;;;;;;;185.98;161.88;;;;;;;16.35;34.69;93156.56;4969212;28;20142;-67
2022/01/05 17:31:48;;;;;;;177.02;155.27;;;;;;;16.34;34.67;93153.13;4968903;28;21258;-67
2022/01/05 17:34:14;;;;;;;181.88;158.13;;;;;;;16.35;34.75;93154.63;4969619;28;20061;-67
2022/01/05 17:36:39;;;;;;;174.48;152.00;;;;;;;16.34;34.68;93153.13;4966166;28;20058;-67
2022/01/05 17:39:05;;;;;;;183.82;160.68;;;;;;;16.35;34.74;93153.88;4969050;28;20082;-67
2022/01/05 17:41:31;;;;;;;180.00;157.27;;;;;;;16.32;34.61;93149.41;4971069;28;20065;-67
2022/01/05 17:43:57;;;;;;;181.57;158.00;;;;;;;16.32;34.63;93157.50;4969579;28;20249;-67
2022/01/05 17:46:22;;;;;;;185.98;162.07;;;;;;;16.29;34.71;93158.44;4966200;28;20105;-67
2022/01/05 17:48:49;;;;;;;180.30;157.43;;;;;;;16.28;34.65;93160.38;4967419;28;20046;-67
2022/01/05 17:51:18;;;;;;;185.18;161.55;;;;;;;16.29;34.45;93153.03;4965805;28;20233;-67
2022/01/05 17:53:45;;;;;;;186.98;162.25;;;;;;;16.29;34.57;93156.47;4968486;28;20057;-67
2022/01/05 17:56:11;;;;;;;185.82;160.00;;;;;;;16.31;34.69;93164.09;4967400;28;20049;-67
2022/01/05 17:58:37;;;;;;;180.52;157.23;;;;;;;16.31;34.56;93164.84;4969544;28;20059;-67
2022/01/05 18:01:03;;;;;;;182.68;158.50;;;;;;;16.31;34.57;93166.81;4969641;28;20293;-67
2022/01/05 18:03:29;;;;;;;190.23;165.57;;;;;;;16.32;34.51;93160.94;4966525;28;20618;-67
2022/01/05 18:05:54;;;;;;;183.10;160.13;;;;;;;16.33;34.53;93156.28;4968885;28;20042;-67
2022/01/05 18:08:20;;;;;;;188.98;163.40;;;;;;;16.32;34.50;93165.59;4967397;28;20046;-67
2022/01/05 18:10:46;;;;;;;184.05;158.68;;;;;;;16.30;34.65;93162.63;4967371;28;20142;-67
2022/01/05 18:13:11;;;;;;;186.75;160.93;;;;;;;16.32;34.63;93179.84;4969038;28;20113;-67
2022/01/05 18:15:38;;;;;;;185.93;159.93;;;;;;;16.31;34.45;93167.53;4966080;28;20173;-67
2022/01/05 18:18:04;;;;;;;186.73;162.23;;;;;;;16.31;34.52;93174.91;4966534;28;20055;-66
2022/01/05 18:20:31;;;;;;;182.68;159.98;;;;;;;16.30;34.59;93170.72;4966423;28;20955;-67
2022/01/05 18:22:57;;;;;;;191.20;165.50;;;;;;;16.27;34.64;93187.81;4966397;28;20046;-66
2022/01/05 18:25:24;;;;;;;188.10;164.43;;;;;;;16.24;34.51;93186.81;4976450;28;20049;-67
2022/01/05 18:27:51;;;;;;;187.18;164.02;;;;;;;16.22;34.43;93193.88;4966356;28;20095;-67
2022/01/05 18:30:17;;;;;;;182.40;158.35;;;;;;;16.23;34.26;93200.75;4963811;28;20215;-67
2022/01/05 18:32:43;;;;;;;185.55;161.80;;;;;;;16.21;34.45;93200.47;4967626;28;20046;-67
2022/01/05 18:35:10;;;;;;;188.82;164.32;;;;;;;16.20;34.39;93197.03;4965474;28;20451;-67
2022/01/05 18:37:37;;;;;;;190.43;163.43;;;;;;;16.21;34.36;93201.22;4964435;28;22054;-67
2022/01/05 18:40:09;;;;;;;187.10;163.20;;;;;;;16.22;34.26;93199.28;4967611;28;20110;-66
2022/01/05 18:42:34;;;;;;;183.30;160.45;;;;;;;16.24;34.38;93194.91;4963899;28;20648;-67
2022/01/05 18:45:03;;;;;;;189.25;163.35;;;;;;;16.24;34.33;93204.97;4965358;28;20070;-65
2022/01/05 18:47:28;;;;;;;181.73;159.48;;;;;;;16.24;34.21;93202.25;4964614;28;20042;-69
2022/01/05 18:49:55;;;;;;;176.82;153.88;;;;;;;16.23;34.05;93212.31;4967399;28;20619;-68
2022/01/05 18:52:21;;;;;;;188.07;162.35;;;;;;;16.24;34.15;93207.66;4968391;28;20116;-69
2022/01/05 18:54:48;;;;;;;193.52;167.63;;;;;;;16.25;34.12;93209.88;4969863;28;20057;-70
2022/01/05 18:57:14;;;;;;;184.27;158.55;;;;;;;16.27;34.03;93220.19;4966506;28;20058;-70
2022/01/05 18:59:41;;;;;;;187.30;162.52;;;;;;;16.24;34.01;93229.22;4965700;28;21052;-66
2022/01/05 19:02:06;;;;;;;186.43;160.02;;;;;;;16.25;34.05;93234.16;4966072;28;20061;-66
2022/01/05 19:04:32;;;;;;;209.88;181.48;;;;;;;16.25;34.20;93228.75;4956195;28;21169;-66
2022/01/05 19:06:58;;;;;;;184.15;160.13;;;;;;;16.25;34.17;93219.94;4962021;28;20038;-66
2022/01/05 19:09:24;;;;;;;191.35;165.52;;;;;;;16.25;34.22;93230.72;4968252;28;20415;-66
2022/01/05 19:11:50;;;;;;;181.48;155.73;;;;;;;16.25;34.00;93236.84;4967145;28;20090;-66
2022/01/05 19:14:16;;;;;;;197.07;169.98;;;;;;;16.27;34.19;93233.69;4966951;28;20067;-67
2022/01/05 19:16:46;;;;;;;176.70;152.43;;;;;;;16.27;34.17;93222.91;4968415;28;20049;-66
2022/01/05 19:19:11;;;;;;;189.32;164.70;;;;;;;16.28;34.03;93229.78;4963137;28;21207;-66
2022/01/05 19:21:37;;;;;;;189.05;162.48;;;;;;;16.27;34.04;93225.59;4964815;28;20068;-67
2022/01/05 19:24:03;;;;;;;185.55;160.07;;;;;;;16.28;33.92;93217.03;4967751;28;20107;-67
2022/01/05 19:26:28;;;;;;;181.88;155.80;;;;;;;16.28;33.99;93230.53;4970678;28;21055;-67
2022/01/05 19:28:54;;;;;;;188.18;163.02;;;;;;;16.28;34.04;93227.81;4967920;28;20101;-67
2022/01/05 19:31:20;;;;;;;185.18;162.18;;;;;;;16.27;33.88;93225.59;4964082;28;20206;-67
2022/01/05 19:33:45;;;;;;;188.32;164.07;;;;;;;16.24;33.99;93231.94;4969999;28;20120;-67
2022/01/05 19:36:11;;;;;;;184.00;158.02;;;;;;;16.25;34.05;93238.81;4967200;28;20097;-66
2022/01/05 19:38:37;;;;;;;183.50;158.85;;;;;;;16.25;33.91;93236.13;4964914;28;20052;-65
2022/01/05 19:41:03;;;;;;;182.23;158.50;;;;;;;16.26;33.79;93251.81;4966188;28;20589;-67
2022/01/05 19:43:29;;;;;;;179.65;155.30;;;;;;;16.27;33.79;93253.31;4966653;28;20062;-66
2022/01/05 19:45:55;;;;;;;181.18;157.90;;;;;;;16.26;33.80;93248.38;4966794;28;20050;-66
2022/01/05 19:48:21;;;;;;;183.98;159.02;;;;;;;16.25;33.79;93249.63;4966706;28;20046;-66
2022/01/05 19:50:59;;;;;;;190.82;164.73;;;;;;;16.24;33.72;93251.56;4964581;28;20069;-66
2022/01/05 19:53:26;;;;;;;200.40;173.63;;;;;;;16.24;33.48;93243.47;4949046;28;21197;-66
2022/01/05 19:55:56;;;;;;;184.45;159.20;;;;;;;16.27;33.84;93244.47;4968018;28;20129;-67
2022/01/05 19:58:22;;;;;;;189.48;164.68;;;;;;;16.27;33.84;93245.22;4964504;28;20047;-66
2022/01/05 20:00:47;;;;;;;187.25;161.50;;;;;;;16.29;33.87;93248.22;4965319;28;20054;-67
2022/01/05 20:03:17;;;;;;;181.52;156.73;;;;;;;16.27;33.74;93249.88;4962777;28;20046;-66